createdAt,value
2023-04-04T00:00:24.823Z,1023.34
2023-04-04T00:03:32.352Z,1023.26
2023-04-04T00:06:41.283Z,1023.36
2023-04-04T00:09:48.785Z,1023.37
2023-04-04T00:12:56.146Z,1023.39
2023-04-04T00:16:03.359Z,1023.49
2023-04-04T00:19:12.952Z,1023.45
2023-04-04T00:22:20.013Z,1023.53
2023-04-04T00:25:27.900Z,1023.44
2023-04-04T00:28:38.325Z,1023.44
2023-04-04T00:31:45.445Z,1023.38
2023-04-04T00:34:53.323Z,1023.39
2023-04-04T00:38:02.621Z,1023.35
2023-04-04T00:41:09.690Z,1023.37
2023-04-04T00:44:17.687Z,1023.38
2023-04-04T00:47:26.785Z,1023.34
2023-04-04T00:50:33.741Z,1023.33
2023-04-04T00:53:41.389Z,1023.36
2023-04-04T00:56:48.734Z,1023.30
2023-04-04T00:59:57.763Z,1023.34
2023-04-04T01:03:05.746Z,1023.36
2023-04-04T01:06:13.160Z,1023.29
2023-04-04T01:09:21.880Z,1023.26
2023-04-04T01:12:29.629Z,1023.27
2023-04-04T01:15:36.826Z,1023.27
2023-04-04T01:18:45.557Z,1023.26
2023-04-04T01:21:53.270Z,1023.19
2023-04-04T01:25:00.680Z,1023.19
2023-04-04T01:28:09.737Z,1023.15
2023-04-04T01:31:17.100Z,1023.20
2023-04-04T01:34:24.433Z,1023.23
2023-04-04T01:37:31.996Z,1023.15
2023-04-04T01:40:41.162Z,1023.13
2023-04-04T01:43:49.222Z,1023.11
2023-04-04T01:46:56.249Z,1023.13
2023-04-04T01:50:05.294Z,1023.09
2023-04-04T01:53:13.328Z,1023.07
2023-04-04T01:56:20.508Z,1023.04
2023-04-04T01:59:29.814Z,1023.00
2023-04-04T02:02:37.262Z,1023.03
2023-04-04T02:05:44.426Z,1023.05
2023-04-04T02:08:53.675Z,1023.04
2023-04-04T02:12:01.520Z,1022.98
2023-04-04T02:15:08.631Z,1022.92
2023-04-04T02:18:16.434Z,1022.94
2023-04-04T02:21:25.255Z,1022.93
2023-04-04T02:24:32.467Z,1022.96
2023-04-04T02:27:40.187Z,1022.89
2023-04-04T02:30:48.968Z,1022.85
2023-04-04T02:33:56.379Z,1022.81
2023-04-04T02:37:03.984Z,1022.75
2023-04-04T02:40:12.781Z,1022.75
2023-04-04T02:43:20.116Z,1022.74
2023-04-04T02:46:27.657Z,1022.71
2023-04-04T02:49:36.741Z,1022.67
2023-04-04T02:52:44.410Z,1022.66
2023-04-04T02:55:51.787Z,1022.57
2023-04-04T02:59:01.058Z,1022.62
2023-04-04T03:02:08.569Z,1022.60
2023-04-04T03:05:16.156Z,1022.58
2023-04-04T03:08:24.092Z,1022.52
2023-04-04T03:11:33.032Z,1022.52
2023-04-04T03:14:40.595Z,1022.52
2023-04-04T03:17:48.642Z,1022.41
2023-04-04T03:20:57.180Z,1022.36
2023-04-04T03:24:04.949Z,1022.41
2023-04-04T03:27:12.813Z,1022.45
2023-04-04T03:30:21.301Z,1022.38
2023-04-04T03:33:28.966Z,1022.31
2023-04-04T03:36:36.053Z,1022.31
2023-04-04T03:39:44.875Z,1022.26
2023-04-04T03:42:52.948Z,1022.25
2023-04-04T03:46:00.378Z,1022.31
2023-04-04T03:49:07.537Z,1022.32
2023-04-04T03:52:16.563Z,1022.35
2023-04-04T03:55:24.253Z,1022.32
2023-04-04T03:58:31.839Z,1022.32
2023-04-04T04:01:40.367Z,1022.24
2023-04-04T04:04:49.675Z,1022.28
2023-04-04T04:07:57.264Z,1022.27
2023-04-04T04:11:05.584Z,1022.19
2023-04-04T04:14:13.314Z,1022.14
2023-04-04T04:17:20.768Z,1022.14
2023-04-04T04:20:29.733Z,1022.12
2023-04-04T04:23:37.564Z,1022.15
2023-04-04T04:26:45.012Z,1022.12
2023-04-04T04:29:52.840Z,1022.10
2023-04-04T04:33:01.900Z,1022.14
2023-04-04T04:36:09.124Z,1022.17
2023-04-04T04:39:16.912Z,1022.19
2023-04-04T04:42:25.744Z,1022.17
2023-04-04T04:45:33.465Z,1022.17
2023-04-04T04:48:40.591Z,1022.25
2023-04-04T04:51:49.301Z,1022.28
2023-04-04T04:54:57.574Z,1022.25
2023-04-04T04:58:05.614Z,1022.31
2023-04-04T05:01:14.450Z,1022.25
2023-04-04T05:04:22.211Z,1022.38
2023-04-04T05:07:30.458Z,1022.32
2023-04-04T05:10:39.110Z,1022.36
2023-04-04T05:13:47.087Z,1022.38
2023-04-04T05:16:54.546Z,1022.38
2023-04-04T05:20:02.008Z,1022.41
2023-04-04T05:23:11.092Z,1022.41
2023-04-04T05:26:18.290Z,1022.44
2023-04-04T05:29:25.505Z,1022.46
2023-04-04T05:32:34.530Z,1022.55
2023-04-04T05:35:42.004Z,1022.54
2023-04-04T05:38:49.305Z,1022.57
2023-04-04T05:41:58.009Z,1022.54
2023-04-04T05:45:05.561Z,1022.58
2023-04-04T05:48:12.947Z,1022.66
2023-04-04T05:51:21.561Z,1022.60
2023-04-04T05:54:28.738Z,1022.58
2023-04-04T05:57:36.590Z,1022.55
2023-04-04T06:00:45.835Z,1022.66
2023-04-04T06:03:54.597Z,1022.67
2023-04-04T06:07:02.457Z,1022.66
2023-04-04T06:10:09.737Z,1022.69
2023-04-04T06:13:18.611Z,1022.71
2023-04-04T06:16:26.340Z,1022.76
2023-04-04T06:19:33.688Z,1022.66
2023-04-04T06:22:42.400Z,1022.69
2023-04-04T06:25:49.371Z,1022.69
2023-04-04T06:28:56.760Z,1022.69
2023-04-04T06:32:05.735Z,1022.75
2023-04-04T06:35:12.673Z,1022.78
2023-04-04T06:38:20.496Z,1022.71
2023-04-04T06:41:27.858Z,1022.72
2023-04-04T06:44:36.268Z,1022.72
2023-04-04T06:47:43.793Z,1022.83
2023-04-04T06:50:51.301Z,1022.82
2023-04-04T06:54:00.173Z,1022.76
2023-04-04T06:57:07.667Z,1022.69
2023-04-04T07:00:14.955Z,1022.68
2023-04-04T07:03:23.682Z,1022.75
2023-04-04T07:06:31.133Z,1022.77
2023-04-04T07:09:38.668Z,1022.77
2023-04-04T07:12:47.558Z,1022.82
2023-04-04T07:15:55.210Z,1022.74
2023-04-04T07:19:02.542Z,1022.71
2023-04-04T07:22:11.363Z,1022.71
2023-04-04T07:25:18.733Z,1022.72
2023-04-04T07:28:26.443Z,1022.69
2023-04-04T07:31:33.652Z,1022.67
2023-04-04T07:34:42.381Z,1022.75
2023-04-04T07:37:50.118Z,1022.70
2023-04-04T07:40:57.356Z,1022.66
2023-04-04T07:44:05.957Z,1022.64
2023-04-04T07:47:14.095Z,1022.61
2023-04-04T07:50:21.366Z,1022.65
2023-04-04T07:53:29.980Z,1022.68
2023-04-04T07:56:37.830Z,1022.72
2023-04-04T07:59:44.847Z,1022.70
2023-04-04T08:02:54.274Z,1022.69
2023-04-04T08:06:01.937Z,1022.70
2023-04-04T08:09:08.958Z,1022.59
2023-04-04T08:12:16.672Z,1022.64
2023-04-04T08:15:25.550Z,1022.67
2023-04-04T08:18:32.671Z,1022.63
2023-04-04T08:21:40.405Z,1022.65
2023-04-04T08:24:48.735Z,1022.69
2023-04-04T08:27:56.249Z,1022.62
2023-04-04T08:31:03.906Z,1022.61
2023-04-04T08:34:12.428Z,1022.63
2023-04-04T08:37:19.975Z,1022.60
2023-04-04T08:40:27.690Z,1022.55
2023-04-04T08:43:36.151Z,1022.52
2023-04-04T08:46:43.851Z,1022.55
2023-04-04T08:49:51.661Z,1022.53
2023-04-04T08:52:59.225Z,1022.43
2023-04-04T08:56:08.539Z,1022.50
2023-04-04T08:59:15.941Z,1022.37
2023-04-04T09:02:23.616Z,1022.33
2023-04-04T09:05:33.035Z,1022.31
2023-04-04T09:08:40.464Z,1022.26
2023-04-04T09:11:48.001Z,1022.32
2023-04-04T09:14:57.272Z,1022.29
2023-04-04T09:18:04.839Z,1022.27
2023-04-04T09:21:12.241Z,1022.33
2023-04-04T09:24:21.394Z,1022.30
2023-04-04T09:27:28.677Z,1022.20
2023-04-04T09:30:36.250Z,1022.23
2023-04-04T09:33:43.686Z,1022.16
2023-04-04T09:36:52.870Z,1022.22
2023-04-04T09:40:00.284Z,1022.17
2023-04-04T09:43:07.803Z,1022.18
2023-04-04T09:46:17.085Z,1022.18
2023-04-04T09:49:24.449Z,1022.16
2023-04-04T09:52:31.986Z,1022.12
2023-04-04T09:55:41.210Z,1022.21
2023-04-04T09:59:02.301Z,1022.30
2023-04-04T10:01:53.376Z,1022.22
2023-04-04T10:05:06.345Z,1022.21
2023-04-04T10:08:03.336Z,1022.15
2023-04-04T10:11:12.605Z,1022.20
2023-04-04T10:14:21.562Z,1022.20
2023-04-04T10:17:29.228Z,1022.25
2023-04-04T10:20:36.714Z,1022.27
2023-04-04T10:23:44.200Z,1022.24
2023-04-04T10:26:53.242Z,1022.24
2023-04-04T10:30:00.704Z,1022.31
2023-04-04T10:33:08.527Z,1022.30
2023-04-04T10:36:17.543Z,1022.24
2023-04-04T10:39:25.036Z,1022.20
2023-04-04T10:42:33.009Z,1022.11
2023-04-04T10:45:41.843Z,1022.03
2023-04-04T10:48:49.704Z,1021.91
2023-04-04T10:51:57.602Z,1021.91
2023-04-04T10:55:06.175Z,1021.83
2023-04-04T10:58:13.833Z,1021.80
2023-04-04T11:01:21.933Z,1021.85
2023-04-04T11:04:29.861Z,1021.69
2023-04-04T11:07:39.035Z,1021.71
2023-04-04T11:10:46.434Z,1021.60
2023-04-04T11:13:53.810Z,1021.55
2023-04-04T11:17:02.428Z,1021.43
2023-04-04T11:20:09.846Z,1021.45
2023-04-04T11:23:17.397Z,1021.42
2023-04-04T11:26:26.234Z,1021.41
2023-04-04T11:29:34.023Z,1021.35
2023-04-04T11:32:41.218Z,1021.31
2023-04-04T11:35:50.869Z,1021.22
2023-04-04T11:38:58.842Z,1021.23
2023-04-04T11:42:05.945Z,1021.22
2023-04-04T11:45:13.962Z,1021.25
2023-04-04T11:48:22.823Z,1021.16
2023-04-04T11:51:30.143Z,1021.14
2023-04-04T11:54:37.854Z,1021.17
2023-04-04T11:57:46.540Z,1021.04
2023-04-04T12:00:54.041Z,1020.99
2023-04-04T12:04:01.861Z,1021.00
2023-04-04T12:07:10.597Z,1020.91
2023-04-04T12:10:17.973Z,1020.94
2023-04-04T12:13:25.411Z,1020.85
2023-04-04T12:16:34.576Z,1020.74
2023-04-04T12:19:41.891Z,1020.79
2023-04-04T12:22:50.526Z,1020.80
2023-04-04T12:25:58.511Z,1020.87
2023-04-04T12:29:06.966Z,1020.75
2023-04-04T12:32:14.381Z,1020.70
2023-04-04T12:35:22.396Z,1020.58
2023-04-04T12:38:31.272Z,1020.55
2023-04-04T12:41:38.717Z,1020.55
2023-04-04T12:44:46.328Z,1020.50
2023-04-04T12:47:54.942Z,1020.47
2023-04-04T12:51:02.757Z,1020.40
2023-04-04T12:54:10.467Z,1020.31
2023-04-04T12:57:18.919Z,1020.37
2023-04-04T13:00:26.951Z,1020.36
2023-04-04T13:03:34.672Z,1020.26
2023-04-04T13:06:43.639Z,1020.20
2023-04-04T13:09:51.193Z,1020.12
2023-04-04T13:12:58.999Z,1019.92
2023-04-04T13:16:06.567Z,1019.99
2023-04-04T13:19:15.803Z,1019.96
2023-04-04T13:22:23.284Z,1019.85
2023-04-04T13:25:31.425Z,1019.78
2023-04-04T13:28:40.167Z,1019.75
2023-04-04T13:31:48.065Z,1019.74
2023-04-04T13:34:55.886Z,1019.73
2023-04-04T13:38:04.178Z,1019.64
2023-04-04T13:41:12.136Z,1019.61
2023-04-04T13:44:19.856Z,1019.58
2023-04-04T13:47:28.421Z,1019.59
2023-04-04T13:50:36.276Z,1019.48
2023-04-04T13:53:43.983Z,1019.51
2023-04-04T13:56:51.225Z,1019.51
2023-04-04T14:00:00.362Z,1019.38
2023-04-04T14:03:07.948Z,1019.43
2023-04-04T14:06:15.335Z,1019.33
2023-04-04T14:09:24.579Z,1019.31
2023-04-04T14:12:32.003Z,1019.31
2023-04-04T14:15:40.056Z,1019.26
2023-04-04T14:18:49.317Z,1019.30
2023-04-04T14:21:56.823Z,1019.27
2023-04-04T14:25:04.221Z,1019.33
2023-04-04T14:28:12.739Z,1019.25
2023-04-04T14:31:20.723Z,1019.27
2023-04-04T14:34:28.633Z,1019.26
2023-04-04T14:37:35.724Z,1019.24
2023-04-04T14:40:45.087Z,1019.13
2023-04-04T14:43:52.737Z,1019.15
2023-04-04T14:46:59.886Z,1019.12
2023-04-04T14:50:08.813Z,1019.08
2023-04-04T14:53:16.779Z,1019.15
2023-04-04T14:56:24.138Z,1019.15
2023-04-04T14:59:33.657Z,1019.09
2023-04-04T15:02:41.622Z,1019.05
2023-04-04T15:05:48.698Z,1019.05
2023-04-04T15:08:57.985Z,1018.99
2023-04-04T15:12:05.422Z,1018.97
2023-04-04T15:15:12.938Z,1018.90
2023-04-04T15:18:20.952Z,1018.94
2023-04-04T15:21:29.431Z,1019.01
2023-04-04T15:24:37.265Z,1018.88
2023-04-04T15:27:44.524Z,1018.91
2023-04-04T15:30:53.690Z,1018.90
2023-04-04T15:34:01.019Z,1018.90
2023-04-04T15:37:08.389Z,1018.91
2023-04-04T15:40:17.395Z,1018.86
2023-04-04T15:43:24.773Z,1018.80
2023-04-04T15:46:32.110Z,1018.82
2023-04-04T15:49:41.348Z,1018.81
2023-04-04T15:52:48.820Z,1018.72
2023-04-04T15:55:56.132Z,1018.73
2023-04-04T15:59:04.916Z,1018.63
2023-04-04T16:02:11.902Z,1018.60
2023-04-04T16:05:19.361Z,1018.55
2023-04-04T16:08:26.710Z,1018.63
2023-04-04T16:11:35.277Z,1018.57
2023-04-04T16:14:43.055Z,1018.54
2023-04-04T16:17:50.874Z,1018.54
2023-04-04T16:20:59.797Z,1018.53
2023-04-04T16:24:07.527Z,1018.52
2023-04-04T16:27:15.278Z,1018.51
2023-04-04T16:30:23.781Z,1018.48
2023-04-04T16:33:31.732Z,1018.45
2023-04-04T16:36:39.170Z,1018.44
2023-04-04T16:39:47.902Z,1018.47
2023-04-04T16:42:55.279Z,1018.45
2023-04-04T16:46:02.610Z,1018.40
2023-04-04T16:49:09.785Z,1018.44
2023-04-04T16:52:18.865Z,1018.41
2023-04-04T16:55:26.097Z,1018.42
2023-04-04T16:58:33.418Z,1018.42
2023-04-04T17:01:42.538Z,1018.42
2023-04-04T17:04:49.965Z,1018.44
2023-04-04T17:07:57.154Z,1018.42
2023-04-04T17:11:06.261Z,1018.52
2023-04-04T17:14:14.550Z,1018.52
2023-04-04T17:17:22.556Z,1018.52
2023-04-04T17:20:33.647Z,1018.47
2023-04-04T17:23:41.746Z,1018.51
2023-04-04T17:26:49.187Z,1018.51
2023-04-04T17:30:01.716Z,1018.49
2023-04-04T17:33:00.517Z,1018.51
2023-04-04T17:36:07.602Z,1018.51
2023-04-04T17:39:15.681Z,1018.50
2023-04-04T17:42:25.165Z,1018.48
2023-04-04T17:45:32.349Z,1018.53
2023-04-04T17:48:40.066Z,1018.55
2023-04-04T17:51:49.254Z,1018.46
2023-04-04T17:54:56.397Z,1018.51
2023-04-04T17:58:04.041Z,1018.53
2023-04-04T18:01:13.034Z,1018.49
2023-04-04T18:04:20.630Z,1018.45
2023-04-04T18:07:28.617Z,1018.49
2023-04-04T18:10:35.919Z,1018.42
2023-04-04T18:13:45.061Z,1018.45
2023-04-04T18:16:52.606Z,1018.48
2023-04-04T18:19:59.780Z,1018.51
2023-04-04T18:23:09.276Z,1018.50
2023-04-04T18:26:16.877Z,1018.55
2023-04-04T18:29:24.459Z,1018.57
2023-04-04T18:32:33.826Z,1018.67
2023-04-04T18:35:41.134Z,1018.61
2023-04-04T18:38:48.658Z,1018.60
2023-04-04T18:41:57.872Z,1018.62
2023-04-04T18:45:05.342Z,1018.60
2023-04-04T18:48:13.477Z,1018.60
2023-04-04T18:51:23.814Z,1018.61
2023-04-04T18:54:31.078Z,1018.64
2023-04-04T18:57:38.893Z,1018.72
2023-04-04T19:00:48.073Z,1018.68
2023-04-04T19:03:56.674Z,1018.66
2023-04-04T19:07:04.265Z,1018.68
2023-04-04T19:10:12.081Z,1018.70
2023-04-04T19:13:21.012Z,1018.68
2023-04-04T19:16:28.660Z,1018.71
2023-04-04T19:19:36.577Z,1018.66
2023-04-04T19:22:45.432Z,1018.65
2023-04-04T19:25:53.455Z,1018.65
2023-04-04T19:29:02.055Z,1018.63
2023-04-04T19:32:10.814Z,1018.66
2023-04-04T19:35:17.931Z,1018.62
2023-04-04T19:38:25.899Z,1018.56
2023-04-04T19:41:33.285Z,1018.64
2023-04-04T19:44:42.168Z,1018.64
2023-04-04T19:47:49.927Z,1018.56
2023-04-04T19:50:57.329Z,1018.61
2023-04-04T19:54:06.098Z,1018.62
2023-04-04T19:57:13.872Z,1018.62
2023-04-04T20:00:20.887Z,1018.61
2023-04-04T20:03:30.204Z,1018.59
2023-04-04T20:06:37.882Z,1018.66
2023-04-04T20:09:44.872Z,1018.65
2023-04-04T20:12:54.071Z,1018.63
2023-04-04T20:16:02.047Z,1018.66
2023-04-04T20:19:09.238Z,1018.65
2023-04-04T20:22:17.255Z,1018.61
2023-04-04T20:25:26.176Z,1018.65
2023-04-04T20:28:33.674Z,1018.60
2023-04-04T20:31:41.418Z,1018.57
2023-04-04T20:34:50.718Z,1018.60
2023-04-04T20:37:58.130Z,1018.59
2023-04-04T20:41:05.548Z,1018.63
2023-04-04T20:44:14.490Z,1018.59
2023-04-04T20:47:21.899Z,1018.58
2023-04-04T20:50:29.339Z,1018.65
2023-04-04T20:53:38.369Z,1018.65
2023-04-04T20:56:45.328Z,1018.61
2023-04-04T20:59:52.996Z,1018.60
2023-04-04T21:03:02.146Z,1018.59
2023-04-04T21:06:09.050Z,1018.57
2023-04-04T21:09:16.909Z,1018.56
2023-04-04T21:12:24.525Z,1018.56
2023-04-04T21:15:32.959Z,1018.56
2023-04-04T21:18:40.291Z,1018.56
2023-04-04T21:21:47.583Z,1018.53
2023-04-04T21:24:56.423Z,1018.57
2023-04-04T21:28:04.161Z,1018.52
2023-04-04T21:31:11.712Z,1018.51
2023-04-04T21:34:20.568Z,1018.48
2023-04-04T21:37:28.192Z,1018.47
2023-04-04T21:40:35.597Z,1018.48
2023-04-04T21:43:44.304Z,1018.47
2023-04-04T21:46:51.911Z,1018.48
2023-04-04T21:49:59.136Z,1018.44
2023-04-04T21:53:06.504Z,1018.40
2023-04-04T21:56:15.490Z,1018.37
2023-04-04T21:59:23.189Z,1018.31
2023-04-04T22:02:30.672Z,1018.32
2023-04-04T22:05:39.730Z,1018.37
2023-04-04T22:08:47.363Z,1018.34
2023-04-04T22:11:54.829Z,1018.38
2023-04-04T22:15:03.633Z,1018.32
2023-04-04T22:18:11.352Z,1018.29
2023-04-04T22:21:18.443Z,1018.28
2023-04-04T22:24:27.485Z,1018.25
2023-04-04T22:27:35.230Z,1018.29
2023-04-04T22:30:42.782Z,1018.28
2023-04-04T22:33:50.568Z,1018.20
2023-04-04T22:36:59.620Z,1018.30
2023-04-04T22:40:06.542Z,1018.22
2023-04-04T22:43:14.272Z,1018.30
2023-04-04T22:46:23.194Z,1018.26
2023-04-04T22:49:30.246Z,1018.20
2023-04-04T22:52:37.921Z,1018.19
2023-04-04T22:55:46.642Z,1018.19
2023-04-04T22:58:54.046Z,1018.24
2023-04-04T23:02:01.631Z,1018.21
2023-04-04T23:05:10.369Z,1018.27
2023-04-04T23:08:17.625Z,1018.24
2023-04-04T23:11:25.287Z,1018.23
2023-04-04T23:14:32.320Z,1018.22
2023-04-04T23:17:41.524Z,1018.16
2023-04-04T23:20:49.213Z,1018.16
2023-04-04T23:23:56.608Z,1018.06
2023-04-04T23:27:05.394Z,1018.09
2023-04-04T23:30:12.598Z,1018.15
2023-04-04T23:33:20.112Z,1018.06
2023-04-04T23:36:29.003Z,1018.02
2023-04-04T23:39:36.343Z,1017.99
2023-04-04T23:42:43.599Z,1017.97
2023-04-04T23:45:52.595Z,1018.00
2023-04-04T23:48:59.874Z,1017.92
2023-04-04T23:52:07.156Z,1017.91
2023-04-04T23:55:15.955Z,1017.98
2023-04-04T23:58:23.638Z,1017.87
